sensor_id;sensor_type;location;lat;lon;timestamp;pressure;altitude;pressure_sealevel;temperature;humidity
15604;BME280;7902;49.042;9.092;2022-12-07T00:00:47;99181.78;;;7.77;67.17
15604;BME280;7902;49.042;9.092;2022-12-07T00:03:13;99180.25;;;7.73;67.34
15604;BME280;7902;49.042;9.092;2022-12-07T00:05:39;99177.19;;;7.80;67.24
15604;BME280;7902;49.042;9.092;2022-12-07T00:08:05;99177.75;;;7.71;67.42
15604;BME280;7902;49.042;9.092;2022-12-07T00:10:33;99184.91;;;7.82;66.77
15604;BME280;7902;49.042;9.092;2022-12-07T00:12:59;99176.72;;;7.74;67.35
15604;BME280;7902;49.042;9.092;2022-12-07T00:15:25;99171.69;;;7.71;67.24
15604;BME280;7902;49.042;9.092;2022-12-07T00:17:51;99167.38;;;7.70;67.10
15604;BME280;7902;49.042;9.092;2022-12-07T00:20:17;99177.56;;;7.74;67.47
15604;BME280;7902;49.042;9.092;2022-12-07T00:22:43;99172.59;;;7.70;67.37
15604;BME280;7902;49.042;9.092;2022-12-07T00:25:09;99161.88;;;7.74;67.26
15604;BME280;7902;49.042;9.092;2022-12-07T00:27:35;99166.88;;;7.63;67.59
15604;BME280;7902;49.042;9.092;2022-12-07T00:30:00;99161.22;;;7.71;67.36
15604;BME280;7902;49.042;9.092;2022-12-07T00:32:26;99164.00;;;7.68;67.39
15604;BME280;7902;49.042;9.092;2022-12-07T00:34:52;99160.56;;;7.67;67.35
15604;BME280;7902;49.042;9.092;2022-12-07T00:37:18;99166.22;;;7.60;67.83
15604;BME280;7902;49.042;9.092;2022-12-07T00:39:45;99163.63;;;7.60;67.09
15604;BME280;7902;49.042;9.092;2022-12-07T00:42:12;99171.31;;;7.63;67.60
15604;BME280;7902;49.042;9.092;2022-12-07T00:44:37;99161.09;;;7.58;67.62
15604;BME280;7902;49.042;9.092;2022-12-07T00:47:03;99160.66;;;7.66;67.39
15604;BME280;7902;49.042;9.092;2022-12-07T00:49:29;99159.91;;;7.78;67.33
15604;BME280;7902;49.042;9.092;2022-12-07T00:51:55;99158.59;;;7.71;67.40
15604;BME280;7902;49.042;9.092;2022-12-07T00:54:21;99155.81;;;7.74;67.37
15604;BME280;7902;49.042;9.092;2022-12-07T00:56:47;99157.75;;;7.70;67.29
15604;BME280;7902;49.042;9.092;2022-12-07T00:59:14;99155.81;;;7.74;66.96
15604;BME280;7902;49.042;9.092;2022-12-07T01:01:41;99165.88;;;7.66;67.58
15604;BME280;7902;49.042;9.092;2022-12-07T01:04:06;99153.38;;;7.71;67.55
15604;BME280;7902;49.042;9.092;2022-12-07T01:06:32;99163.47;;;7.63;67.58
15604;BME280;7902;49.042;9.092;2022-12-07T01:08:58;99161.38;;;7.68;67.56
15604;BME280;7902;49.042;9.092;2022-12-07T01:11:27;99160.03;;;7.76;67.32
15604;BME280;7902;49.042;9.092;2022-12-07T01:13:55;99164.41;;;7.76;67.02
15604;BME280;7902;49.042;9.092;2022-12-07T01:16:22;99161.56;;;7.65;67.71
15604;BME280;7902;49.042;9.092;2022-12-07T01:18:51;99157.84;;;7.69;67.36
15604;BME280;7902;49.042;9.092;2022-12-07T01:21:23;99153.00;;;7.63;67.54
15604;BME280;7902;49.042;9.092;2022-12-07T01:23:50;99167.16;;;7.59;67.95
15604;BME280;7902;49.042;9.092;2022-12-07T01:26:20;99155.88;;;7.58;67.75
15604;BME280;7902;49.042;9.092;2022-12-07T01:28:46;99162.41;;;7.51;68.38
15604;BME280;7902;49.042;9.092;2022-12-07T01:31:14;99169.97;;;7.56;68.05
15604;BME280;7902;49.042;9.092;2022-12-07T01:33:42;99165.00;;;7.51;68.01
15604;BME280;7902;49.042;9.092;2022-12-07T01:38:40;99165.84;;;7.52;68.42
15604;BME280;7902;49.042;9.092;2022-12-07T01:41:06;99167.53;;;7.53;67.77
15604;BME280;7902;49.042;9.092;2022-12-07T01:43:33;99170.88;;;7.55;68.32
15604;BME280;7902;49.042;9.092;2022-12-07T01:46:00;99174.44;;;7.54;68.01
15604;BME280;7902;49.042;9.092;2022-12-07T01:48:36;99172.84;;;7.51;68.36
15604;BME280;7902;49.042;9.092;2022-12-07T01:51:11;99172.56;;;7.56;68.16
15604;BME280;7902;49.042;9.092;2022-12-07T01:53:40;99169.69;;;7.60;67.93
15604;BME280;7902;49.042;9.092;2022-12-07T01:56:11;99165.66;;;7.55;68.04
15604;BME280;7902;49.042;9.092;2022-12-07T01:58:40;99170.53;;;7.61;68.13
15604;BME280;7902;49.042;9.092;2022-12-07T02:01:06;99166.81;;;7.65;67.45
15604;BME280;7902;49.042;9.092;2022-12-07T02:03:37;99163.47;;;7.63;67.78
15604;BME280;7902;49.042;9.092;2022-12-07T02:06:06;99173.91;;;7.63;67.31
15604;BME280;7902;49.042;9.092;2022-12-07T02:08:33;99167.56;;;7.67;67.69
15604;BME280;7902;49.042;9.092;2022-12-07T02:11:01;99167.00;;;7.62;67.55
15604;BME280;7902;49.042;9.092;2022-12-07T02:13:31;99167.38;;;7.70;67.22
15604;BME280;7902;49.042;9.092;2022-12-07T02:27:30;99145.16;;;7.63;66.95
15604;BME280;7902;49.042;9.092;2022-12-07T02:30:03;99151.31;;;7.62;67.33
15604;BME280;7902;49.042;9.092;2022-12-07T02:32:56;99150.81;;;7.55;67.34
15604;BME280;7902;49.042;9.092;2022-12-07T02:35:30;99149.63;;;7.61;66.94
15604;BME280;7902;49.042;9.092;2022-12-07T02:43:09;99142.34;;;7.66;66.57
15604;BME280;7902;49.042;9.092;2022-12-07T02:45:40;99132.09;;;7.63;66.88
15604;BME280;7902;49.042;9.092;2022-12-07T02:48:10;99132.19;;;7.61;67.04
15604;BME280;7902;49.042;9.092;2022-12-07T02:50:37;99129.84;;;7.57;66.88
15604;BME280;7902;49.042;9.092;2022-12-07T02:53:03;99119.03;;;7.48;67.31
15604;BME280;7902;49.042;9.092;2022-12-07T02:55:39;99125.25;;;7.46;67.42
15604;BME280;7902;49.042;9.092;2022-12-07T02:58:43;99133.84;;;7.48;67.32
15604;BME280;7902;49.042;9.092;2022-12-07T03:03:48;99127.59;;;7.50;67.55
15604;BME280;7902;49.042;9.092;2022-12-07T03:06:28;99126.00;;;7.34;67.29
15604;BME280;7902;49.042;9.092;2022-12-07T03:10:08;99126.16;;;7.31;67.99
15604;BME280;7902;49.042;9.092;2022-12-07T03:12:12;99131.38;;;7.31;67.77
15604;BME280;7902;49.042;9.092;2022-12-07T03:14:50;99136.25;;;7.37;67.68
15604;BME280;7902;49.042;9.092;2022-12-07T03:17:24;99124.94;;;7.36;67.85
15604;BME280;7902;49.042;9.092;2022-12-07T03:19:53;99128.31;;;7.38;67.47
15604;BME280;7902;49.042;9.092;2022-12-07T03:22:21;99126.44;;;7.40;67.56
15604;BME280;7902;49.042;9.092;2022-12-07T03:24:57;99126.84;;;7.48;67.37
15604;BME280;7902;49.042;9.092;2022-12-07T03:27:32;99132.31;;;7.44;67.31
15604;BME280;7902;49.042;9.092;2022-12-07T03:30:03;99121.22;;;7.40;67.99
15604;BME280;7902;49.042;9.092;2022-12-07T03:32:34;99114.31;;;7.39;67.66
15604;BME280;7902;49.042;9.092;2022-12-07T03:35:14;99099.97;;;7.46;67.66
15604;BME280;7902;49.042;9.092;2022-12-07T03:37:55;99089.72;;;7.43;67.67
15604;BME280;7902;49.042;9.092;2022-12-07T03:40:33;99078.50;;;7.41;67.43
15604;BME280;7902;49.042;9.092;2022-12-07T03:43:01;99079.44;;;7.40;67.67
15604;BME280;7902;49.042;9.092;2022-12-07T03:45:43;99077.66;;;7.41;67.55
15604;BME280;7902;49.042;9.092;2022-12-07T03:48:32;99093.41;;;7.39;67.54
15604;BME280;7902;49.042;9.092;2022-12-07T03:51:06;99100.31;;;7.40;67.58
15604;BME280;7902;49.042;9.092;2022-12-07T03:53:42;99095.75;;;7.44;67.64
15604;BME280;7902;49.042;9.092;2022-12-07T03:56:10;99098.78;;;7.52;67.15
15604;BME280;7902;49.042;9.092;2022-12-07T03:58:38;99093.53;;;7.52;67.24
15604;BME280;7902;49.042;9.092;2022-12-07T04:01:04;99096.25;;;7.50;67.06
15604;BME280;7902;49.042;9.092;2022-12-07T04:03:30;99099.13;;;7.46;67.38
15604;BME280;7902;49.042;9.092;2022-12-07T04:05:56;99096.25;;;7.50;67.51
15604;BME280;7902;49.042;9.092;2022-12-07T04:08:23;99093.81;;;7.47;67.35
15604;BME280;7902;49.042;9.092;2022-12-07T04:10:49;99111.72;;;7.54;67.55
15604;BME280;7902;49.042;9.092;2022-12-07T04:13:15;99114.72;;;7.47;67.30
15604;BME280;7902;49.042;9.092;2022-12-07T04:15:41;99115.72;;;7.45;67.69
15604;BME280;7902;49.042;9.092;2022-12-07T04:18:07;99110.69;;;7.42;67.67
15604;BME280;7902;49.042;9.092;2022-12-07T04:20:33;99105.56;;;7.40;67.69
15604;BME280;7902;49.042;9.092;2022-12-07T04:22:58;99097.81;;;7.39;67.62
15604;BME280;7902;49.042;9.092;2022-12-07T04:25:24;99103.97;;;7.38;67.89
15604;BME280;7902;49.042;9.092;2022-12-07T04:27:50;99100.72;;;7.34;67.81
15604;BME280;7902;49.042;9.092;2022-12-07T04:30:16;99112.28;;;7.44;67.46
15604;BME280;7902;49.042;9.092;2022-12-07T04:32:42;99103.88;;;7.39;67.40
15604;BME280;7902;49.042;9.092;2022-12-07T04:35:08;99107.81;;;7.46;67.05
15604;BME280;7902;49.042;9.092;2022-12-07T04:37:34;99097.16;;;7.35;67.61
15604;BME280;7902;49.042;9.092;2022-12-07T04:40:00;99096.69;;;7.29;67.54
15604;BME280;7902;49.042;9.092;2022-12-07T04:42:26;99093.81;;;7.33;67.66
15604;BME280;7902;49.042;9.092;2022-12-07T04:44:52;99093.22;;;7.28;67.02
15604;BME280;7902;49.042;9.092;2022-12-07T04:47:18;99093.69;;;7.35;67.56
15604;BME280;7902;49.042;9.092;2022-12-07T04:49:44;99092.13;;;7.32;68.03
15604;BME280;7902;49.042;9.092;2022-12-07T04:52:10;99092.88;;;7.34;66.57
15604;BME280;7902;49.042;9.092;2022-12-07T04:54:35;99095.28;;;7.23;66.66
15604;BME280;7902;49.042;9.092;2022-12-07T04:57:01;99092.47;;;7.26;67.16
15604;BME280;7902;49.042;9.092;2022-12-07T04:59:27;99096.75;;;7.27;67.37
15604;BME280;7902;49.042;9.092;2022-12-07T05:01:53;99094.22;;;7.26;66.68
15604;BME280;7902;49.042;9.092;2022-12-07T05:04:19;99094.91;;;7.29;66.71
15604;BME280;7902;49.042;9.092;2022-12-07T05:06:45;99100.72;;;7.34;66.75
15604;BME280;7902;49.042;9.092;2022-12-07T05:09:11;99107.50;;;7.37;65.91
15604;BME280;7902;49.042;9.092;2022-12-07T05:11:37;99103.78;;;7.41;66.09
15604;BME280;7902;49.042;9.092;2022-12-07T05:16:38;99106.44;;;7.25;66.67
15604;BME280;7902;49.042;9.092;2022-12-07T05:19:04;99106.28;;;7.28;66.68
15604;BME280;7902;49.042;9.092;2022-12-07T05:21:30;99106.38;;;7.27;66.19
15604;BME280;7902;49.042;9.092;2022-12-07T05:23:56;99100.72;;;7.34;66.45
15604;BME280;7902;49.042;9.092;2022-12-07T05:26:22;99097.25;;;7.34;66.13
15604;BME280;7902;49.042;9.092;2022-12-07T05:28:53;99090.44;;;7.31;65.94
15604;BME280;7902;49.042;9.092;2022-12-07T05:31:19;99099.03;;;7.33;65.44
15604;BME280;7902;49.042;9.092;2022-12-07T05:33:46;99086.13;;;7.30;65.64
15604;BME280;7902;49.042;9.092;2022-12-07T05:36:12;99090.78;;;7.25;66.09
15604;BME280;7902;49.042;9.092;2022-12-07T05:38:37;99097.69;;;7.26;65.89
15604;BME280;7902;49.042;9.092;2022-12-07T05:41:05;99088.56;;;7.33;65.87
15604;BME280;7902;49.042;9.092;2022-12-07T05:43:31;99084.81;;;7.23;65.62
15604;BME280;7902;49.042;9.092;2022-12-07T05:45:58;99081.84;;;7.15;66.18
15604;BME280;7902;49.042;9.092;2022-12-07T05:48:24;99072.59;;;7.10;65.99
15604;BME280;7902;49.042;9.092;2022-12-07T05:50:51;99080.22;;;7.13;65.61
15604;BME280;7902;49.042;9.092;2022-12-07T05:53:17;99075.31;;;7.22;65.57
15604;BME280;7902;49.042;9.092;2022-12-07T05:55:43;99072.31;;;7.14;65.58
15604;BME280;7902;49.042;9.092;2022-12-07T05:58:09;99067.81;;;7.16;64.92
15604;BME280;7902;49.042;9.092;2022-12-07T06:00:55;99069.31;;;7.06;64.79
15604;BME280;7902;49.042;9.092;2022-12-07T06:03:21;99072.47;;;7.11;65.00
15604;BME280;7902;49.042;9.092;2022-12-07T06:05:47;99072.84;;;7.05;65.15
15604;BME280;7902;49.042;9.092;2022-12-07T06:08:13;99082.09;;;7.11;65.04
15604;BME280;7902;49.042;9.092;2022-12-07T06:10:40;99092.84;;;7.20;64.66
15604;BME280;7902;49.042;9.092;2022-12-07T06:13:08;99092.84;;;7.20;64.15
15604;BME280;7902;49.042;9.092;2022-12-07T06:15:37;99096.75;;;7.13;63.97
15604;BME280;7902;49.042;9.092;2022-12-07T06:18:03;99094.69;;;7.18;64.45
15604;BME280;7902;49.042;9.092;2022-12-07T06:20:29;99096.97;;;7.24;64.69
15604;BME280;7902;49.042;9.092;2022-12-07T06:22:55;99101.59;;;7.19;64.18
15604;BME280;7902;49.042;9.092;2022-12-07T06:25:21;99098.19;;;7.33;64.08
15604;BME280;7902;49.042;9.092;2022-12-07T06:27:47;99093.81;;;7.33;63.90
15604;BME280;7902;49.042;9.092;2022-12-07T06:30:13;99100.31;;;7.40;63.87
15604;BME280;7902;49.042;9.092;2022-12-07T06:32:38;99097.16;;;7.35;63.80
15604;BME280;7902;49.042;9.092;2022-12-07T06:35:04;99101.44;;;7.36;63.78
15604;BME280;7902;49.042;9.092;2022-12-07T06:37:30;99100.16;;;7.43;64.14
15604;BME280;7902;49.042;9.092;2022-12-07T06:39:56;99104.81;;;7.38;63.91
15604;BME280;7902;49.042;9.092;2022-12-07T06:42:22;99099.88;;;7.34;64.15
15604;BME280;7902;49.042;9.092;2022-12-07T06:44:48;99107.59;;;7.35;64.08
15604;BME280;7902;49.042;9.092;2022-12-07T06:47:14;99101.53;;;7.35;64.67
15604;BME280;7902;49.042;9.092;2022-12-07T06:49:40;99104.59;;;7.27;64.77
15604;BME280;7902;49.042;9.092;2022-12-07T06:52:06;99099.09;;;7.32;64.79
15604;BME280;7902;49.042;9.092;2022-12-07T06:54:32;99102.19;;;7.24;64.97
15604;BME280;7902;49.042;9.092;2022-12-07T06:56:58;99102.19;;;7.24;64.74
15604;BME280;7902;49.042;9.092;2022-12-07T06:59:24;99106.44;;;7.25;64.92
15604;BME280;7902;49.042;9.092;2022-12-07T07:01:50;99109.44;;;7.19;65.09
15604;BME280;7902;49.042;9.092;2022-12-07T07:04:15;99110.38;;;7.18;64.73
15604;BME280;7902;49.042;9.092;2022-12-07T07:06:41;99108.09;;;7.12;64.82
15604;BME280;7902;49.042;9.092;2022-12-07T07:09:07;99102.31;;;7.07;64.57
15604;BME280;7902;49.042;9.092;2022-12-07T07:11:34;99104.25;;;7.03;65.28
15604;BME280;7902;49.042;9.092;2022-12-07T07:14:00;99114.63;;;7.05;64.87
15604;BME280;7902;49.042;9.092;2022-12-07T07:16:29;99109.56;;;7.02;64.76
15604;BME280;7902;49.042;9.092;2022-12-07T07:18:56;99110.59;;;6.99;64.67
15604;BME280;7902;49.042;9.092;2022-12-07T07:21:22;99113.97;;;7.01;64.75
15604;BME280;7902;49.042;9.092;2022-12-07T07:23:48;99117.31;;;7.03;63.83
15604;BME280;7902;49.042;9.092;2022-12-07T07:26:14;99119.44;;;6.97;63.83
15604;BME280;7902;49.042;9.092;2022-12-07T07:28:40;99121.53;;;7.06;63.75
15604;BME280;7902;49.042;9.092;2022-12-07T07:31:05;99124.56;;;6.98;63.64
15604;BME280;7902;49.042;9.092;2022-12-07T07:33:31;99122.47;;;7.05;64.50
15604;BME280;7902;49.042;9.092;2022-12-07T07:35:57;99121.94;;;7.14;63.54
15604;BME280;7902;49.042;9.092;2022-12-07T07:38:23;99120.53;;;7.23;63.40
15604;BME280;7902;49.042;9.092;2022-12-07T07:40:49;99126.97;;;7.17;63.78
15604;BME280;7902;49.042;9.092;2022-12-07T07:43:15;99132.25;;;7.16;63.95
15604;BME280;7902;49.042;9.092;2022-12-07T07:45:41;99126.97;;;7.17;63.95
15604;BME280;7902;49.042;9.092;2022-12-07T07:48:07;99126.41;;;7.26;63.88
15604;BME280;7902;49.042;9.092;2022-12-07T07:50:33;99136.28;;;7.21;63.59
15604;BME280;7902;49.042;9.092;2022-12-07T07:52:59;99133.13;;;7.30;63.45
15604;BME280;7902;49.042;9.092;2022-12-07T07:55:24;99132.75;;;7.22;63.61
15604;BME280;7902;49.042;9.092;2022-12-07T07:57:50;99132.69;;;7.24;63.46
15604;BME280;7902;49.042;9.092;2022-12-07T08:00:16;99139.47;;;7.26;63.42
15604;BME280;7902;49.042;9.092;2022-12-07T08:02:43;99137.31;;;7.19;63.46
15604;BME280;7902;49.042;9.092;2022-12-07T08:05:10;99142.25;;;7.09;63.87
15604;BME280;7902;49.042;9.092;2022-12-07T08:07:37;99147.56;;;7.22;63.35
15604;BME280;7902;49.042;9.092;2022-12-07T08:10:03;99141.34;;;7.24;63.69
15604;BME280;7902;49.042;9.092;2022-12-07T08:12:29;99146.94;;;7.18;63.81
15604;BME280;7902;49.042;9.092;2022-12-07T08:14:55;99143.19;;;7.22;63.72
15604;BME280;7902;49.042;9.092;2022-12-07T08:17:21;99145.81;;;7.22;63.19
15604;BME280;7902;49.042;9.092;2022-12-07T08:19:47;99144.88;;;7.23;63.36
15604;BME280;7902;49.042;9.092;2022-12-07T08:22:13;99152.72;;;7.23;63.33
15604;BME280;7902;49.042;9.092;2022-12-07T08:24:39;99149.28;;;7.23;63.26
15604;BME280;7902;49.042;9.092;2022-12-07T08:27:05;99148.06;;;7.28;62.76
15604;BME280;7902;49.042;9.092;2022-12-07T08:29:31;99158.53;;;7.28;63.54
15604;BME280;7902;49.042;9.092;2022-12-07T08:31:56;99148.91;;;7.29;62.89
15604;BME280;7902;49.042;9.092;2022-12-07T08:34:22;99149.31;;;7.37;63.11
15604;BME280;7902;49.042;9.092;2022-12-07T08:36:48;99142.97;;;7.41;63.40
15604;BME280;7902;49.042;9.092;2022-12-07T08:39:14;99149.22;;;7.38;63.45
15604;BME280;7902;49.042;9.092;2022-12-07T08:41:40;99149.13;;;7.40;63.21
15604;BME280;7902;49.042;9.092;2022-12-07T08:44:06;99149.88;;;7.42;63.48
15604;BME280;7902;49.042;9.092;2022-12-07T08:46:38;99151.19;;;7.49;63.35
15604;BME280;7902;49.042;9.092;2022-12-07T08:49:16;99150.00;;;7.55;63.15
15604;BME280;7902;49.042;9.092;2022-12-07T08:51:43;99151.88;;;7.53;63.62
15604;BME280;7902;49.042;9.092;2022-12-07T08:54:13;99150.09;;;7.53;63.10
15604;BME280;7902;49.042;9.092;2022-12-07T08:56:40;99154.06;;;7.44;63.74
15604;BME280;7902;49.042;9.092;2022-12-07T08:59:07;99150.38;;;7.48;63.25
15604;BME280;7902;49.042;9.092;2022-12-07T09:01:33;99154.84;;;7.61;63.15
15604;BME280;7902;49.042;9.092;2022-12-07T09:03:58;99152.53;;;7.56;63.48
15604;BME280;7902;49.042;9.092;2022-12-07T09:06:25;99156.91;;;7.56;63.41
15604;BME280;7902;49.042;9.092;2022-12-07T09:08:55;99147.31;;;7.70;63.13
15604;BME280;7902;49.042;9.092;2022-12-07T09:11:23;99146.28;;;7.73;63.00
15604;BME280;7902;49.042;9.092;2022-12-07T09:13:49;99146.84;;;7.78;63.73
15604;BME280;7902;49.042;9.092;2022-12-07T09:16:15;99139.47;;;7.84;62.87
15604;BME280;7902;49.042;9.092;2022-12-07T09:18:41;99143.88;;;7.84;63.17
15604;BME280;7902;49.042;9.092;2022-12-07T09:21:07;99139.41;;;7.86;63.13
15604;BME280;7902;49.042;9.092;2022-12-07T09:23:33;99150.31;;;7.92;63.26
15604;BME280;7902;49.042;9.092;2022-12-07T09:26:01;99145.34;;;8.02;62.41
15604;BME280;7902;49.042;9.092;2022-12-07T09:28:27;99148.91;;;8.01;63.18
15604;BME280;7902;49.042;9.092;2022-12-07T09:30:52;99158.06;;;8.08;63.00
15604;BME280;7902;49.042;9.092;2022-12-07T09:33:18;99151.63;;;8.00;63.35
15604;BME280;7902;49.042;9.092;2022-12-07T09:35:48;99159.00;;;7.93;63.91
15604;BME280;7902;49.042;9.092;2022-12-07T09:38:14;99157.13;;;8.09;62.83
15604;BME280;7902;49.042;9.092;2022-12-07T09:40:41;99153.47;;;8.12;63.21
15604;BME280;7902;49.042;9.092;2022-12-07T09:43:18;99150.94;;;8.10;63.67
15604;BME280;7902;49.042;9.092;2022-12-07T09:45:45;99153.47;;;8.12;63.40
15604;BME280;7902;49.042;9.092;2022-12-07T09:48:17;99154.13;;;8.01;63.68
15604;BME280;7902;49.042;9.092;2022-12-07T09:50:44;99144.69;;;8.13;63.08
15604;BME280;7902;49.042;9.092;2022-12-07T09:53:16;99145.91;;;8.07;63.51
15604;BME280;7902;49.042;9.092;2022-12-07T09:55:45;99145.53;;;8.13;63.15
15604;BME280;7902;49.042;9.092;2022-12-07T09:58:24;99150.78;;;8.13;63.37
15604;BME280;7902;49.042;9.092;2022-12-07T10:01:18;99152.25;;;8.17;63.06
15604;BME280;7902;49.042;9.092;2022-12-07T10:03:58;99143.09;;;8.10;63.43
15604;BME280;7902;49.042;9.092;2022-12-07T10:06:24;99139.91;;;8.05;63.27
15604;BME280;7902;49.042;9.092;2022-12-07T10:08:50;99136.94;;;8.11;63.26
15604;BME280;7902;49.042;9.092;2022-12-07T10:11:16;99141.81;;;8.17;63.30
15604;BME280;7902;49.042;9.092;2022-12-07T10:13:46;99137.78;;;8.12;63.25
15604;BME280;7902;49.042;9.092;2022-12-07T10:16:40;99132.81;;;8.21;63.60
15604;BME280;7902;49.042;9.092;2022-12-07T10:19:25;99130.19;;;8.21;63.64
15604;BME280;7902;49.042;9.092;2022-12-07T10:22:12;99132.19;;;8.18;63.75
15604;BME280;7902;49.042;9.092;2022-12-07T10:24:40;99128.38;;;8.09;63.94
15604;BME280;7902;49.042;9.092;2022-12-07T10:27:29;99130.00;;;8.24;63.41
15604;BME280;7902;49.042;9.092;2022-12-07T10:29:57;99129.66;;;8.30;62.97
15604;BME280;7902;49.042;9.092;2022-12-07T10:32:34;99125.19;;;8.18;63.72
15604;BME280;7902;49.042;9.092;2022-12-07T10:35:23;99121.22;;;8.25;63.38
15604;BME280;7902;49.042;9.092;2022-12-07T10:37:50;99121.44;;;8.22;63.85
15604;BME280;7902;49.042;9.092;2022-12-07T10:40:33;99117.97;;;8.36;63.30
15604;BME280;7902;49.042;9.092;2022-12-07T10:48:19;99106.28;;;8.42;63.52
15604;BME280;7902;49.042;9.092;2022-12-07T10:53:37;99100.00;;;8.44;63.87
15604;BME280;7902;49.042;9.092;2022-12-07T10:56:16;99095.97;;;8.53;63.47
15604;BME280;7902;49.042;9.092;2022-12-07T11:05:16;99093.75;;;8.47;63.23
15604;BME280;7902;49.042;9.092;2022-12-07T11:07:57;99092.69;;;8.49;63.41
15604;BME280;7902;49.042;9.092;2022-12-07T11:13:18;99087.59;;;8.33;63.93
15604;BME280;7902;49.042;9.092;2022-12-07T11:15:51;99088.31;;;8.50;63.36
15604;BME280;7902;49.042;9.092;2022-12-07T11:18:28;99077.88;;;8.35;63.79
15604;BME280;7902;49.042;9.092;2022-12-07T11:21:07;99084.13;;;8.47;63.55
15604;BME280;7902;49.042;9.092;2022-12-07T11:26:19;99071.69;;;8.51;63.76
15604;BME280;7902;49.042;9.092;2022-12-07T11:32:34;99082.25;;;8.49;63.36
15604;BME280;7902;49.042;9.092;2022-12-07T11:37:51;99071.78;;;8.49;63.66
15604;BME280;7902;49.042;9.092;2022-12-07T11:40:27;99068.84;;;8.54;63.18
15604;BME280;7902;49.042;9.092;2022-12-07T11:43:09;99070.53;;;8.55;63.00
15604;BME280;7902;49.042;9.092;2022-12-07T11:45:41;99066.69;;;8.60;63.04
15604;BME280;7902;49.042;9.092;2022-12-07T11:48:22;99058.22;;;8.57;63.16
15604;BME280;7902;49.042;9.092;2022-12-07T11:50:52;99057.16;;;8.59;62.87
15604;BME280;7902;49.042;9.092;2022-12-07T11:53:24;99058.00;;;8.60;63.21
15604;BME280;7902;49.042;9.092;2022-12-07T11:56:10;99056.84;;;8.64;63.19
15604;BME280;7902;49.042;9.092;2022-12-07T12:06:52;99046.72;;;8.72;62.57
15604;BME280;7902;49.042;9.092;2022-12-07T12:09:31;99041.69;;;8.69;62.53
15604;BME280;7902;49.042;9.092;2022-12-07T12:23:17;99021.59;;;8.69;63.05
15604;BME280;7902;49.042;9.092;2022-12-07T12:25:54;99029.00;;;8.63;62.90
15604;BME280;7902;49.042;9.092;2022-12-07T12:28:31;99020.00;;;8.67;62.79
15604;BME280;7902;49.042;9.092;2022-12-07T12:31:10;99029.34;;;8.71;62.88
15604;BME280;7902;49.042;9.092;2022-12-07T12:33:43;99026.38;;;8.63;63.15
15604;BME280;7902;49.042;9.092;2022-12-07T12:51:43;99011.31;;;8.66;63.40
15604;BME280;7902;49.042;9.092;2022-12-07T12:54:18;99012.28;;;8.78;62.54
15604;BME280;7902;49.042;9.092;2022-12-07T12:57:08;99007.59;;;8.83;62.99
15604;BME280;7902;49.042;9.092;2022-12-07T13:20:53;98999.94;;;8.80;61.89
15604;BME280;7902;49.042;9.092;2022-12-07T13:23:23;98993.88;;;8.79;62.63
15604;BME280;7902;49.042;9.092;2022-12-07T13:25:55;98994.72;;;8.80;62.53
15604;BME280;7902;49.042;9.092;2022-12-07T13:28:27;98987.78;;;8.79;62.42
15604;BME280;7902;49.042;9.092;2022-12-07T13:33:45;98992.72;;;8.84;62.47
15604;BME280;7902;49.042;9.092;2022-12-07T13:36:18;98981.41;;;8.83;62.89
15604;BME280;7902;49.042;9.092;2022-12-07T13:38:52;98980.34;;;8.86;62.54
15604;BME280;7902;49.042;9.092;2022-12-07T13:41:20;98978.47;;;8.75;62.19
15604;BME280;7902;49.042;9.092;2022-12-07T13:46:44;98977.31;;;8.92;62.02
15604;BME280;7902;49.042;9.092;2022-12-07T13:49:24;98977.31;;;8.79;61.90
15604;BME280;7902;49.042;9.092;2022-12-07T13:51:52;98983.09;;;8.84;62.63
15604;BME280;7902;49.042;9.092;2022-12-07T13:54:19;98979.53;;;8.85;62.17
15604;BME280;7902;49.042;9.092;2022-12-07T13:56:51;98976.56;;;8.77;62.18
15604;BME280;7902;49.042;9.092;2022-12-07T13:59:23;98974.06;;;8.75;62.10
15604;BME280;7902;49.042;9.092;2022-12-07T14:01:51;98972.09;;;8.79;62.25
15604;BME280;7902;49.042;9.092;2022-12-07T14:04:29;98972.72;;;8.82;62.34
15604;BME280;7902;49.042;9.092;2022-12-07T14:06:56;98973.63;;;8.81;62.36
15604;BME280;7902;49.042;9.092;2022-12-07T14:09:24;98967.25;;;8.86;61.93
15604;BME280;7902;49.042;9.092;2022-12-07T14:11:53;98972.63;;;8.84;61.76
15604;BME280;7902;49.042;9.092;2022-12-07T14:14:22;98976.16;;;8.83;62.30
15604;BME280;7902;49.042;9.092;2022-12-07T14:19:42;98982.66;;;8.77;61.93
15604;BME280;7902;49.042;9.092;2022-12-07T14:22:25;98985.16;;;8.79;61.69
15604;BME280;7902;49.042;9.092;2022-12-07T14:25:20;98983.41;;;8.79;62.26
15604;BME280;7902;49.042;9.092;2022-12-07T14:27:50;98988.50;;;8.81;61.96
15604;BME280;7902;49.042;9.092;2022-12-07T14:30:18;98980.88;;;8.78;62.17
15604;BME280;7902;49.042;9.092;2022-12-07T14:32:44;98983.50;;;8.78;61.92
15604;BME280;7902;49.042;9.092;2022-12-07T14:35:16;98978.47;;;8.75;62.22
15604;BME280;7902;49.042;9.092;2022-12-07T14:37:45;98981.41;;;8.70;62.54
15604;BME280;7902;49.042;9.092;2022-12-07T14:40:17;98977.00;;;8.71;62.01
15604;BME280;7902;49.042;9.092;2022-12-07T14:42:45;98978.13;;;8.67;62.57
15604;BME280;7902;49.042;9.092;2022-12-07T14:45:14;98972.88;;;8.67;62.63
15604;BME280;7902;49.042;9.092;2022-12-07T14:47:41;98977.78;;;8.59;62.81
15604;BME280;7902;49.042;9.092;2022-12-07T14:50:08;98979.88;;;8.54;62.33
15604;BME280;7902;49.042;9.092;2022-12-07T14:52:34;98973.63;;;8.56;62.58
15604;BME280;7902;49.042;9.092;2022-12-07T14:54:59;98980.88;;;8.38;62.78
15604;BME280;7902;49.042;9.092;2022-12-07T14:57:25;98978.63;;;8.47;63.02
15604;BME280;7902;49.042;9.092;2022-12-07T14:59:51;98978.81;;;8.44;63.24
15604;BME280;7902;49.042;9.092;2022-12-07T15:02:17;98983.31;;;8.42;62.90
15604;BME280;7902;49.042;9.092;2022-12-07T15:04:43;98981.53;;;8.42;62.85
15604;BME280;7902;49.042;9.092;2022-12-07T15:07:19;98981.53;;;8.42;63.31
15604;BME280;7902;49.042;9.092;2022-12-07T15:09:46;98988.31;;;8.32;63.35
15604;BME280;7902;49.042;9.092;2022-12-07T15:12:12;98982.94;;;8.33;63.39
15604;BME280;7902;49.042;9.092;2022-12-07T15:14:38;98981.56;;;8.28;63.33
15604;BME280;7902;49.042;9.092;2022-12-07T15:17:03;98983.53;;;8.24;63.26
15604;BME280;7902;49.042;9.092;2022-12-07T15:19:29;98976.81;;;8.20;63.69
15604;BME280;7902;49.042;9.092;2022-12-07T15:21:56;98975.72;;;8.10;63.58
15604;BME280;7902;49.042;9.092;2022-12-07T15:24:22;98974.63;;;8.14;63.84
15604;BME280;7902;49.042;9.092;2022-12-07T15:26:49;98978.16;;;8.13;63.59
15604;BME280;7902;49.042;9.092;2022-12-07T15:29:15;98975.94;;;8.07;63.81